sensor_id;sensor_type;location;lat;lon;timestamp;temperature;humidity
10245;DHT22;5167;52.164;10.530;2023-05-07T00:00:08;12.50;38.60
10245;DHT22;5167;52.164;10.530;2023-05-07T00:02:34;12.40;38.00
10245;DHT22;5167;52.164;10.530;2023-05-07T00:05:01;12.40;38.40
10245;DHT22;5167;52.164;10.530;2023-05-07T00:07:27;12.40;38.20
10245;DHT22;5167;52.164;10.530;2023-05-07T00:09:53;12.40;38.90
10245;DHT22;5167;52.164;10.530;2023-05-07T00:12:19;12.40;38.50
10245;DHT22;5167;52.164;10.530;2023-05-07T00:14:45;12.30;38.90
10245;DHT22;5167;52.164;10.530;2023-05-07T00:17:10;12.30;38.50
10245;DHT22;5167;52.164;10.530;2023-05-07T00:19:36;12.20;38.70
10245;DHT22;5167;52.164;10.530;2023-05-07T00:22:02;12.20;38.30
10245;DHT22;5167;52.164;10.530;2023-05-07T00:24:28;12.30;38.40
10245;DHT22;5167;52.164;10.530;2023-05-07T00:26:53;12.40;38.50
10245;DHT22;5167;52.164;10.530;2023-05-07T00:29:19;12.40;38.10
10245;DHT22;5167;52.164;10.530;2023-05-07T00:31:45;12.40;37.10
10245;DHT22;5167;52.164;10.530;2023-05-07T00:34:10;12.20;36.90
10245;DHT22;5167;52.164;10.530;2023-05-07T00:36:36;12.40;36.60
10245;DHT22;5167;52.164;10.530;2023-05-07T00:39:02;12.40;36.80
10245;DHT22;5167;52.164;10.530;2023-05-07T00:41:29;12.40;37.10
10245;DHT22;5167;52.164;10.530;2023-05-07T00:43:56;12.40;36.90
10245;DHT22;5167;52.164;10.530;2023-05-07T00:46:22;12.40;36.70
10245;DHT22;5167;52.164;10.530;2023-05-07T00:48:48;12.40;36.40
10245;DHT22;5167;52.164;10.530;2023-05-07T00:51:15;12.40;35.50
10245;DHT22;5167;52.164;10.530;2023-05-07T00:53:41;12.40;35.40
10245;DHT22;5167;52.164;10.530;2023-05-07T00:56:06;12.30;35.80
10245;DHT22;5167;52.164;10.530;2023-05-07T00:58:33;12.30;37.00
10245;DHT22;5167;52.164;10.530;2023-05-07T01:00:59;12.30;35.60
10245;DHT22;5167;52.164;10.530;2023-05-07T01:03:24;12.30;35.90
10245;DHT22;5167;52.164;10.530;2023-05-07T01:05:52;12.30;35.80
10245;DHT22;5167;52.164;10.530;2023-05-07T01:08:18;12.20;36.70
10245;DHT22;5167;52.164;10.530;2023-05-07T01:10:44;12.30;37.10
10245;DHT22;5167;52.164;10.530;2023-05-07T01:13:12;12.20;36.20
10245;DHT22;5167;52.164;10.530;2023-05-07T01:15:38;12.30;35.70
10245;DHT22;5167;52.164;10.530;2023-05-07T01:18:06;12.20;35.80
10245;DHT22;5167;52.164;10.530;2023-05-07T01:20:32;12.20;35.80
10245;DHT22;5167;52.164;10.530;2023-05-07T01:22:59;12.20;36.30
10245;DHT22;5167;52.164;10.530;2023-05-07T01:25:26;12.20;36.50
10245;DHT22;5167;52.164;10.530;2023-05-07T01:27:51;12.20;36.70
10245;DHT22;5167;52.164;10.530;2023-05-07T01:30:18;12.20;36.90
10245;DHT22;5167;52.164;10.530;2023-05-07T01:32:51;12.20;37.20
10245;DHT22;5167;52.164;10.530;2023-05-07T01:35:22;12.20;36.80
10245;DHT22;5167;52.164;10.530;2023-05-07T01:37:50;12.10;36.40
10245;DHT22;5167;52.164;10.530;2023-05-07T01:40:16;12.00;36.20
10245;DHT22;5167;52.164;10.530;2023-05-07T01:42:43;12.10;36.70
10245;DHT22;5167;52.164;10.530;2023-05-07T01:45:09;12.00;37.10
10245;DHT22;5167;52.164;10.530;2023-05-07T01:47:36;12.00;37.30
10245;DHT22;5167;52.164;10.530;2023-05-07T01:50:04;12.00;37.70
10245;DHT22;5167;52.164;10.530;2023-05-07T01:52:31;11.90;37.90
10245;DHT22;5167;52.164;10.530;2023-05-07T01:54:56;11.90;38.30
10245;DHT22;5167;52.164;10.530;2023-05-07T01:57:22;12.00;38.70
10245;DHT22;5167;52.164;10.530;2023-05-07T01:59:48;12.00;38.70
10245;DHT22;5167;52.164;10.530;2023-05-07T02:02:13;11.90;38.30
10245;DHT22;5167;52.164;10.530;2023-05-07T02:04:39;12.00;38.40
10245;DHT22;5167;52.164;10.530;2023-05-07T02:07:05;11.90;38.80
10245;DHT22;5167;52.164;10.530;2023-05-07T02:09:30;11.90;38.80
10245;DHT22;5167;52.164;10.530;2023-05-07T02:11:56;12.00;38.80
10245;DHT22;5167;52.164;10.530;2023-05-07T02:14:21;12.00;38.50
10245;DHT22;5167;52.164;10.530;2023-05-07T02:16:47;12.00;38.60
10245;DHT22;5167;52.164;10.530;2023-05-07T02:19:13;12.00;39.00
10245;DHT22;5167;52.164;10.530;2023-05-07T02:21:38;12.10;38.50
10245;DHT22;5167;52.164;10.530;2023-05-07T02:24:05;12.00;38.00
10245;DHT22;5167;52.164;10.530;2023-05-07T02:26:30;12.00;38.00
10245;DHT22;5167;52.164;10.530;2023-05-07T02:28:56;11.90;38.60
10245;DHT22;5167;52.164;10.530;2023-05-07T02:31:21;11.90;38.70
10245;DHT22;5167;52.164;10.530;2023-05-07T02:33:47;11.90;38.30
10245;DHT22;5167;52.164;10.530;2023-05-07T02:36:13;11.90;39.10
10245;DHT22;5167;52.164;10.530;2023-05-07T02:38:38;11.90;39.20
10245;DHT22;5167;52.164;10.530;2023-05-07T02:41:04;11.90;39.60
10245;DHT22;5167;52.164;10.530;2023-05-07T02:43:30;11.90;39.60
10245;DHT22;5167;52.164;10.530;2023-05-07T02:46:02;11.90;39.10
10245;DHT22;5167;52.164;10.530;2023-05-07T02:48:28;11.90;39.40
10245;DHT22;5167;52.164;10.530;2023-05-07T02:50:54;11.90;38.80
10245;DHT22;5167;52.164;10.530;2023-05-07T02:53:19;11.80;38.70
10245;DHT22;5167;52.164;10.530;2023-05-07T02:55:45;11.80;39.00
10245;DHT22;5167;52.164;10.530;2023-05-07T02:58:11;11.80;39.40
10245;DHT22;5167;52.164;10.530;2023-05-07T03:00:36;11.80;39.40
10245;DHT22;5167;52.164;10.530;2023-05-07T03:03:02;11.90;39.10
10245;DHT22;5167;52.164;10.530;2023-05-07T03:05:30;11.80;39.40
10245;DHT22;5167;52.164;10.530;2023-05-07T03:07:55;11.80;39.20
10245;DHT22;5167;52.164;10.530;2023-05-07T03:10:21;11.80;38.80
10245;DHT22;5167;52.164;10.530;2023-05-07T03:12:46;11.80;38.80
10245;DHT22;5167;52.164;10.530;2023-05-07T03:15:12;11.80;39.10
10245;DHT22;5167;52.164;10.530;2023-05-07T03:17:38;11.80;38.20
10245;DHT22;5167;52.164;10.530;2023-05-07T03:20:04;11.80;38.40
10245;DHT22;5167;52.164;10.530;2023-05-07T03:22:30;11.80;38.40
10245;DHT22;5167;52.164;10.530;2023-05-07T03:24:55;11.80;38.90
10245;DHT22;5167;52.164;10.530;2023-05-07T03:27:21;11.80;38.50
10245;DHT22;5167;52.164;10.530;2023-05-07T03:29:47;11.80;38.10
10245;DHT22;5167;52.164;10.530;2023-05-07T03:32:13;11.70;38.60
10245;DHT22;5167;52.164;10.530;2023-05-07T03:34:38;11.80;38.30
10245;DHT22;5167;52.164;10.530;2023-05-07T03:37:04;11.80;38.00
10245;DHT22;5167;52.164;10.530;2023-05-07T03:39:29;11.80;37.60
10245;DHT22;5167;52.164;10.530;2023-05-07T03:41:56;11.70;37.70
10245;DHT22;5167;52.164;10.530;2023-05-07T03:44:21;11.70;37.60
10245;DHT22;5167;52.164;10.530;2023-05-07T03:46:47;11.60;37.60
10245;DHT22;5167;52.164;10.530;2023-05-07T03:49:12;11.70;37.20
10245;DHT22;5167;52.164;10.530;2023-05-07T03:51:38;11.70;37.20
10245;DHT22;5167;52.164;10.530;2023-05-07T03:54:04;11.70;37.40
10245;DHT22;5167;52.164;10.530;2023-05-07T03:56:30;11.70;36.40
10245;DHT22;5167;52.164;10.530;2023-05-07T03:58:56;11.70;36.70
10245;DHT22;5167;52.164;10.530;2023-05-07T04:01:22;11.70;36.80
10245;DHT22;5167;52.164;10.530;2023-05-07T04:03:47;11.70;37.20
10245;DHT22;5167;52.164;10.530;2023-05-07T04:06:19;11.70;36.40
10245;DHT22;5167;52.164;10.530;2023-05-07T04:13:07;11.60;35.60
10245;DHT22;5167;52.164;10.530;2023-05-07T04:15:52;11.30;36.50
10245;DHT22;5167;52.164;10.530;2023-05-07T04:18:18;11.50;36.80
10245;DHT22;5167;52.164;10.530;2023-05-07T04:20:43;11.50;35.50
10245;DHT22;5167;52.164;10.530;2023-05-07T04:23:09;11.50;35.50
10245;DHT22;5167;52.164;10.530;2023-05-07T04:25:35;11.40;35.00
10245;DHT22;5167;52.164;10.530;2023-05-07T04:28:00;11.20;35.40
10245;DHT22;5167;52.164;10.530;2023-05-07T04:30:26;11.40;35.00
10245;DHT22;5167;52.164;10.530;2023-05-07T04:32:52;11.40;35.30
10245;DHT22;5167;52.164;10.530;2023-05-07T04:35:18;11.40;35.20
10245;DHT22;5167;52.164;10.530;2023-05-07T04:37:44;11.40;34.80
10245;DHT22;5167;52.164;10.530;2023-05-07T04:40:10;11.50;34.90
10245;DHT22;5167;52.164;10.530;2023-05-07T04:42:35;11.40;35.50
10245;DHT22;5167;52.164;10.530;2023-05-07T04:45:02;11.50;35.00
10245;DHT22;5167;52.164;10.530;2023-05-07T04:47:27;11.50;34.60
10245;DHT22;5167;52.164;10.530;2023-05-07T04:49:53;11.60;33.90
10245;DHT22;5167;52.164;10.530;2023-05-07T04:52:18;11.60;33.80
10245;DHT22;5167;52.164;10.530;2023-05-07T04:54:44;11.60;33.80
10245;DHT22;5167;52.164;10.530;2023-05-07T04:57:10;11.60;33.80
10245;DHT22;5167;52.164;10.530;2023-05-07T04:59:35;11.60;33.40
10245;DHT22;5167;52.164;10.530;2023-05-07T05:02:01;11.70;33.00
10245;DHT22;5167;52.164;10.530;2023-05-07T05:04:27;11.60;33.00
10245;DHT22;5167;52.164;10.530;2023-05-07T05:06:52;11.50;33.10
10245;DHT22;5167;52.164;10.530;2023-05-07T05:09:18;11.60;32.90
10245;DHT22;5167;52.164;10.530;2023-05-07T05:11:44;11.60;32.90
10245;DHT22;5167;52.164;10.530;2023-05-07T05:14:09;11.50;32.70
10245;DHT22;5167;52.164;10.530;2023-05-07T05:16:35;11.60;33.40
10245;DHT22;5167;52.164;10.530;2023-05-07T05:19:02;11.60;33.10
10245;DHT22;5167;52.164;10.530;2023-05-07T05:21:27;11.60;32.90
10245;DHT22;5167;52.164;10.530;2023-05-07T05:23:53;11.70;32.50
10245;DHT22;5167;52.164;10.530;2023-05-07T05:26:19;11.70;32.60
10245;DHT22;5167;52.164;10.530;2023-05-07T05:28:46;11.70;32.10
10245;DHT22;5167;52.164;10.530;2023-05-07T05:31:12;11.70;32.20
10245;DHT22;5167;52.164;10.530;2023-05-07T05:33:39;11.80;32.50
10245;DHT22;5167;52.164;10.530;2023-05-07T05:36:05;11.80;32.30
10245;DHT22;5167;52.164;10.530;2023-05-07T05:38:31;11.80;31.70
10245;DHT22;5167;52.164;10.530;2023-05-07T05:40:57;11.80;31.30
10245;DHT22;5167;52.164;10.530;2023-05-07T05:43:22;11.80;31.20
10245;DHT22;5167;52.164;10.530;2023-05-07T05:45:48;11.80;31.60
10245;DHT22;5167;52.164;10.530;2023-05-07T05:48:14;11.80;31.20
10245;DHT22;5167;52.164;10.530;2023-05-07T05:50:42;11.80;31.80
10245;DHT22;5167;52.164;10.530;2023-05-07T05:53:07;11.80;31.80
10245;DHT22;5167;52.164;10.530;2023-05-07T05:55:34;11.80;31.70
10245;DHT22;5167;52.164;10.530;2023-05-07T05:58:00;11.80;31.40
10245;DHT22;5167;52.164;10.530;2023-05-07T06:00:26;11.80;31.40
10245;DHT22;5167;52.164;10.530;2023-05-07T06:02:52;11.70;31.20
10245;DHT22;5167;52.164;10.530;2023-05-07T06:05:19;11.70;31.60
10245;DHT22;5167;52.164;10.530;2023-05-07T06:07:44;11.80;31.40
10245;DHT22;5167;52.164;10.530;2023-05-07T06:10:10;11.90;31.00
10245;DHT22;5167;52.164;10.530;2023-05-07T06:12:36;11.90;31.20
10245;DHT22;5167;52.164;10.530;2023-05-07T06:15:01;11.90;31.20
10245;DHT22;5167;52.164;10.530;2023-05-07T06:17:27;11.80;29.80
10245;DHT22;5167;52.164;10.530;2023-05-07T06:19:53;11.80;30.30
10245;DHT22;5167;52.164;10.530;2023-05-07T06:22:18;11.90;29.60
10245;DHT22;5167;52.164;10.530;2023-05-07T06:24:44;11.90;29.70
10245;DHT22;5167;52.164;10.530;2023-05-07T06:27:10;12.00;29.80
10245;DHT22;5167;52.164;10.530;2023-05-07T06:29:35;12.00;29.80
10245;DHT22;5167;52.164;10.530;2023-05-07T06:32:11;12.00;29.50
10245;DHT22;5167;52.164;10.530;2023-05-07T06:34:38;12.00;29.10
10245;DHT22;5167;52.164;10.530;2023-05-07T06:37:04;12.00;29.30
10245;DHT22;5167;52.164;10.530;2023-05-07T06:39:30;12.00;29.50
10245;DHT22;5167;52.164;10.530;2023-05-07T06:41:56;12.00;29.60
10245;DHT22;5167;52.164;10.530;2023-05-07T06:44:21;12.10;28.70
10245;DHT22;5167;52.164;10.530;2023-05-07T06:46:47;12.10;28.40
10245;DHT22;5167;52.164;10.530;2023-05-07T06:49:13;12.00;28.80
10245;DHT22;5167;52.164;10.530;2023-05-07T06:51:39;12.00;29.60
10245;DHT22;5167;52.164;10.530;2023-05-07T06:54:05;12.00;29.90
10245;DHT22;5167;52.164;10.530;2023-05-07T06:56:31;12.00;30.10
10245;DHT22;5167;52.164;10.530;2023-05-07T06:58:57;12.10;29.50
10245;DHT22;5167;52.164;10.530;2023-05-07T07:01:22;12.10;29.50
10245;DHT22;5167;52.164;10.530;2023-05-07T07:03:48;11.90;29.70
10245;DHT22;5167;52.164;10.530;2023-05-07T07:06:14;11.90;30.10
10245;DHT22;5167;52.164;10.530;2023-05-07T07:08:39;12.00;30.10
10245;DHT22;5167;52.164;10.530;2023-05-07T07:11:06;12.00;29.90
10245;DHT22;5167;52.164;10.530;2023-05-07T07:13:31;12.00;29.90
10245;DHT22;5167;52.164;10.530;2023-05-07T07:15:57;12.00;28.90
10245;DHT22;5167;52.164;10.530;2023-05-07T07:18:23;12.10;29.60
10245;DHT22;5167;52.164;10.530;2023-05-07T07:20:49;12.10;30.30
10245;DHT22;5167;52.164;10.530;2023-05-07T07:23:14;12.10;30.10
10245;DHT22;5167;52.164;10.530;2023-05-07T07:25:40;12.20;30.20
10245;DHT22;5167;52.164;10.530;2023-05-07T07:28:06;12.20;30.50
10245;DHT22;5167;52.164;10.530;2023-05-07T07:30:32;12.20;29.60
10245;DHT22;5167;52.164;10.530;2023-05-07T07:32:57;12.30;30.30
10245;DHT22;5167;52.164;10.530;2023-05-07T07:35:31;12.40;30.30
10245;DHT22;5167;52.164;10.530;2023-05-07T07:37:57;12.40;29.80
10245;DHT22;5167;52.164;10.530;2023-05-07T07:40:23;12.40;28.90
10245;DHT22;5167;52.164;10.530;2023-05-07T07:42:49;12.30;28.80
10245;DHT22;5167;52.164;10.530;2023-05-07T07:45:14;12.30;28.90
10245;DHT22;5167;52.164;10.530;2023-05-07T07:47:40;12.30;28.60
10245;DHT22;5167;52.164;10.530;2023-05-07T07:50:06;12.30;28.40
10245;DHT22;5167;52.164;10.530;2023-05-07T07:52:32;12.30;29.40
10245;DHT22;5167;52.164;10.530;2023-05-07T07:54:58;12.20;29.00
10245;DHT22;5167;52.164;10.530;2023-05-07T07:57:24;12.20;28.40
10245;DHT22;5167;52.164;10.530;2023-05-07T07:59:50;12.20;29.10
10245;DHT22;5167;52.164;10.530;2023-05-07T08:02:16;12.20;29.00
10245;DHT22;5167;52.164;10.530;2023-05-07T08:04:42;12.30;29.90
10245;DHT22;5167;52.164;10.530;2023-05-07T08:07:09;12.30;28.80
10245;DHT22;5167;52.164;10.530;2023-05-07T08:09:35;12.40;28.50
10245;DHT22;5167;52.164;10.530;2023-05-07T08:12:04;12.40;28.70
10245;DHT22;5167;52.164;10.530;2023-05-07T08:14:29;12.50;28.80
10245;DHT22;5167;52.164;10.530;2023-05-07T08:16:55;12.60;28.00
10245;DHT22;5167;52.164;10.530;2023-05-07T08:19:21;12.50;28.00
10245;DHT22;5167;52.164;10.530;2023-05-07T08:21:48;12.60;27.60
10245;DHT22;5167;52.164;10.530;2023-05-07T08:24:14;12.50;27.40
10245;DHT22;5167;52.164;10.530;2023-05-07T08:26:41;12.50;27.10
10245;DHT22;5167;52.164;10.530;2023-05-07T08:29:06;12.50;27.30
10245;DHT22;5167;52.164;10.530;2023-05-07T08:31:32;12.50;26.70
10245;DHT22;5167;52.164;10.530;2023-05-07T08:33:58;12.40;26.80
10245;DHT22;5167;52.164;10.530;2023-05-07T08:36:24;12.40;27.40
10245;DHT22;5167;52.164;10.530;2023-05-07T08:38:51;12.40;28.10
10245;DHT22;5167;52.164;10.530;2023-05-07T08:41:17;12.50;27.10
10245;DHT22;5167;52.164;10.530;2023-05-07T08:43:47;12.60;27.30
10245;DHT22;5167;52.164;10.530;2023-05-07T08:46:20;12.70;26.50
10245;DHT22;5167;52.164;10.530;2023-05-07T08:48:50;12.80;26.10
10245;DHT22;5167;52.164;10.530;2023-05-07T08:51:20;12.70;26.10
10245;DHT22;5167;52.164;10.530;2023-05-07T08:53:48;12.90;26.30
10245;DHT22;5167;52.164;10.530;2023-05-07T08:56:14;12.90;26.60
10245;DHT22;5167;52.164;10.530;2023-05-07T08:58:44;12.90;25.90
10245;DHT22;5167;52.164;10.530;2023-05-07T09:01:13;13.00;25.60
10245;DHT22;5167;52.164;10.530;2023-05-07T09:03:40;13.20;25.60
10245;DHT22;5167;52.164;10.530;2023-05-07T09:06:05;13.30;24.10
10245;DHT22;5167;52.164;10.530;2023-05-07T09:08:33;13.40;23.30
10245;DHT22;5167;52.164;10.530;2023-05-07T09:10:59;13.30;22.60
10245;DHT22;5167;52.164;10.530;2023-05-07T09:13:26;13.30;22.30
10245;DHT22;5167;52.164;10.530;2023-05-07T09:15:52;13.20;22.20
10245;DHT22;5167;52.164;10.530;2023-05-07T09:18:18;13.20;22.50
10245;DHT22;5167;52.164;10.530;2023-05-07T09:20:44;13.20;22.50
10245;DHT22;5167;52.164;10.530;2023-05-07T09:23:09;13.10;22.50
10245;DHT22;5167;52.164;10.530;2023-05-07T09:25:36;13.20;22.80
10245;DHT22;5167;52.164;10.530;2023-05-07T09:28:03;13.30;23.50
10245;DHT22;5167;52.164;10.530;2023-05-07T09:30:30;13.30;22.40
10245;DHT22;5167;52.164;10.530;2023-05-07T09:33:00;13.40;22.20
10245;DHT22;5167;52.164;10.530;2023-05-07T09:35:26;13.40;22.80
10245;DHT22;5167;52.164;10.530;2023-05-07T09:37:58;13.50;22.00
10245;DHT22;5167;52.164;10.530;2023-05-07T09:40:25;13.50;21.70
10245;DHT22;5167;52.164;10.530;2023-05-07T09:42:52;13.60;21.80
10245;DHT22;5167;52.164;10.530;2023-05-07T09:45:28;13.60;21.10
10245;DHT22;5167;52.164;10.530;2023-05-07T09:47:56;13.70;20.40
10245;DHT22;5167;52.164;10.530;2023-05-07T09:50:26;13.60;20.10
10245;DHT22;5167;52.164;10.530;2023-05-07T09:52:54;13.60;20.20
10245;DHT22;5167;52.164;10.530;2023-05-07T09:55:21;13.60;19.20
10245;DHT22;5167;52.164;10.530;2023-05-07T09:57:50;13.60;19.90
10245;DHT22;5167;52.164;10.530;2023-05-07T10:00:18;13.50;19.90
10245;DHT22;5167;52.164;10.530;2023-05-07T10:02:46;13.40;20.20
10245;DHT22;5167;52.164;10.530;2023-05-07T10:05:14;13.40;20.20
10245;DHT22;5167;52.164;10.530;2023-05-07T10:07:41;13.40;20.40
10245;DHT22;5167;52.164;10.530;2023-05-07T10:10:07;13.40;20.30
10245;DHT22;5167;52.164;10.530;2023-05-07T10:12:33;13.40;20.60
10245;DHT22;5167;52.164;10.530;2023-05-07T10:15:08;13.40;20.30
10245;DHT22;5167;52.164;10.530;2023-05-07T10:17:40;13.50;20.00
10245;DHT22;5167;52.164;10.530;2023-05-07T10:20:07;13.50;20.50
10245;DHT22;5167;52.164;10.530;2023-05-07T10:22:38;13.50;20.40
10245;DHT22;5167;52.164;10.530;2023-05-07T10:25:09;13.60;19.50
10245;DHT22;5167;52.164;10.530;2023-05-07T10:27:40;13.60;18.80
10245;DHT22;5167;52.164;10.530;2023-05-07T10:32:49;13.60;18.60
10245;DHT22;5167;52.164;10.530;2023-05-07T10:35:21;13.70;19.50
10245;DHT22;5167;52.164;10.530;2023-05-07T10:37:48;13.70;21.20
10245;DHT22;5167;52.164;10.530;2023-05-07T10:40:14;13.80;20.70
10245;DHT22;5167;52.164;10.530;2023-05-07T10:43:02;13.90;20.00
10245;DHT22;5167;52.164;10.530;2023-05-07T10:45:30;14.00;18.70
10245;DHT22;5167;52.164;10.530;2023-05-07T10:50:36;14.10;18.40
10245;DHT22;5167;52.164;10.530;2023-05-07T10:58:44;14.00;18.00
10245;DHT22;5167;52.164;10.530;2023-05-07T11:01:09;14.10;18.40
10245;DHT22;5167;52.164;10.530;2023-05-07T11:04:13;14.10;18.20
10245;DHT22;5167;52.164;10.530;2023-05-07T11:06:40;14.10;17.90
10245;DHT22;5167;52.164;10.530;2023-05-07T11:09:05;14.20;18.10
10245;DHT22;5167;52.164;10.530;2023-05-07T11:11:50;14.30;18.60
10245;DHT22;5167;52.164;10.530;2023-05-07T11:17:07;14.30;16.90
10245;DHT22;5167;52.164;10.530;2023-05-07T11:19:59;14.20;16.70
10245;DHT22;5167;52.164;10.530;2023-05-07T11:24:59;14.30;17.00
10245;DHT22;5167;52.164;10.530;2023-05-07T11:27:26;14.20;16.40
10245;DHT22;5167;52.164;10.530;2023-05-07T11:29:52;14.20;15.40
10245;DHT22;5167;52.164;10.530;2023-05-07T11:32:26;14.20;15.40
10245;DHT22;5167;52.164;10.530;2023-05-07T11:34:52;14.30;16.70
10245;DHT22;5167;52.164;10.530;2023-05-07T11:37:19;14.30;17.00
10245;DHT22;5167;52.164;10.530;2023-05-07T11:39:45;14.30;16.80
10245;DHT22;5167;52.164;10.530;2023-05-07T11:44:52;14.20;16.60
10245;DHT22;5167;52.164;10.530;2023-05-07T11:47:18;14.30;17.00
10245;DHT22;5167;52.164;10.530;2023-05-07T11:49:50;14.30;16.70
10245;DHT22;5167;52.164;10.530;2023-05-07T11:52:17;14.40;16.00
10245;DHT22;5167;52.164;10.530;2023-05-07T11:54:54;14.40;14.80
10245;DHT22;5167;52.164;10.530;2023-05-07T11:57:23;14.30;15.30
10245;DHT22;5167;52.164;10.530;2023-05-07T11:59:56;14.30;15.10
10245;DHT22;5167;52.164;10.530;2023-05-07T12:02:22;14.40;15.00
10245;DHT22;5167;52.164;10.530;2023-05-07T12:04:47;14.40;15.10
10245;DHT22;5167;52.164;10.530;2023-05-07T12:07:14;14.50;13.70
10245;DHT22;5167;52.164;10.530;2023-05-07T12:09:43;14.50;15.00
10245;DHT22;5167;52.164;10.530;2023-05-07T12:12:09;14.60;13.50
10245;DHT22;5167;52.164;10.530;2023-05-07T12:14:42;14.60;13.30
10245;DHT22;5167;52.164;10.530;2023-05-07T12:17:09;14.50;14.70
10245;DHT22;5167;52.164;10.530;2023-05-07T12:19:36;14.40;15.00
10245;DHT22;5167;52.164;10.530;2023-05-07T12:22:07;14.50;16.00
10245;DHT22;5167;52.164;10.530;2023-05-07T12:24:47;14.50;16.00
10245;DHT22;5167;52.164;10.530;2023-05-07T12:27:16;14.40;15.90
10245;DHT22;5167;52.164;10.530;2023-05-07T12:29:49;14.50;15.90
10245;DHT22;5167;52.164;10.530;2023-05-07T12:32:20;14.50;15.40
10245;DHT22;5167;52.164;10.530;2023-05-07T12:34:49;14.50;16.40
10245;DHT22;5167;52.164;10.530;2023-05-07T12:37:15;14.60;15.10
10245;DHT22;5167;52.164;10.530;2023-05-07T12:40:04;14.60;15.60
10245;DHT22;5167;52.164;10.530;2023-05-07T12:42:35;14.70;15.60
10245;DHT22;5167;52.164;10.530;2023-05-07T12:45:11;14.60;14.40
10245;DHT22;5167;52.164;10.530;2023-05-07T12:47:37;14.60;15.80
10245;DHT22;5167;52.164;10.530;2023-05-07T12:50:05;14.60;15.60
10245;DHT22;5167;52.164;10.530;2023-05-07T12:52:32;14.60;16.10
10245;DHT22;5167;52.164;10.530;2023-05-07T12:55:07;14.60;15.40
10245;DHT22;5167;52.164;10.530;2023-05-07T12:57:40;14.60;16.20
10245;DHT22;5167;52.164;10.530;2023-05-07T13:00:07;14.70;16.10
10245;DHT22;5167;52.164;10.530;2023-05-07T13:02:43;14.80;15.80
10245;DHT22;5167;52.164;10.530;2023-05-07T13:05:11;14.80;16.00
10245;DHT22;5167;52.164;10.530;2023-05-07T13:07:37;14.90;14.30
10245;DHT22;5167;52.164;10.530;2023-05-07T13:10:04;14.90;15.00
10245;DHT22;5167;52.164;10.530;2023-05-07T13:12:30;14.80;14.00
10245;DHT22;5167;52.164;10.530;2023-05-07T13:14:55;14.90;14.70
10245;DHT22;5167;52.164;10.530;2023-05-07T13:17:21;14.90;13.80
10245;DHT22;5167;52.164;10.530;2023-05-07T13:19:46;14.90;14.90
10245;DHT22;5167;52.164;10.530;2023-05-07T13:22:15;14.90;14.40
10245;DHT22;5167;52.164;10.530;2023-05-07T13:24:41;14.90;14.20
10245;DHT22;5167;52.164;10.530;2023-05-07T13:27:08;14.90;12.60
10245;DHT22;5167;52.164;10.530;2023-05-07T13:29:34;14.90;12.60
10245;DHT22;5167;52.164;10.530;2023-05-07T13:32:00;14.90;12.40
10245;DHT22;5167;52.164;10.530;2023-05-07T13:34:25;14.80;13.10
10245;DHT22;5167;52.164;10.530;2023-05-07T13:36:51;14.90;13.50
10245;DHT22;5167;52.164;10.530;2023-05-07T13:39:17;15.00;12.50
10245;DHT22;5167;52.164;10.530;2023-05-07T13:41:42;14.90;11.40
10245;DHT22;5167;52.164;10.530;2023-05-07T13:44:08;14.80;11.90
10245;DHT22;5167;52.164;10.530;2023-05-07T13:46:34;14.70;13.10
10245;DHT22;5167;52.164;10.530;2023-05-07T13:48:59;14.70;12.20
10245;DHT22;5167;52.164;10.530;2023-05-07T13:51:25;14.80;12.60
10245;DHT22;5167;52.164;10.530;2023-05-07T13:53:51;14.90;13.60
10245;DHT22;5167;52.164;10.530;2023-05-07T13:56:17;15.00;13.20
10245;DHT22;5167;52.164;10.530;2023-05-07T13:58:43;15.00;11.80
10245;DHT22;5167;52.164;10.530;2023-05-07T14:01:09;15.00;11.30
10245;DHT22;5167;52.164;10.530;2023-05-07T14:03:34;14.90;11.50
10245;DHT22;5167;52.164;10.530;2023-05-07T14:06:03;14.90;11.10
10245;DHT22;5167;52.164;10.530;2023-05-07T14:08:29;14.80;11.80
10245;DHT22;5167;52.164;10.530;2023-05-07T14:10:55;14.80;11.80
10245;DHT22;5167;52.164;10.530;2023-05-07T14:13:20;14.80;12.20
10245;DHT22;5167;52.164;10.530;2023-05-07T14:15:46;14.90;12.90
10245;DHT22;5167;52.164;10.530;2023-05-07T14:18:13;15.00;12.40
10245;DHT22;5167;52.164;10.530;2023-05-07T14:20:39;15.10;12.60
10245;DHT22;5167;52.164;10.530;2023-05-07T14:23:08;15.00;12.60
10245;DHT22;5167;52.164;10.530;2023-05-07T14:25:33;15.20;12.20
10245;DHT22;5167;52.164;10.530;2023-05-07T14:27:59;15.20;12.60
10245;DHT22;5167;52.164;10.530;2023-05-07T14:30:24;15.30;12.40
10245;DHT22;5167;52.164;10.530;2023-05-07T14:32:50;15.20;12.10
10245;DHT22;5167;52.164;10.530;2023-05-07T14:35:16;15.30;13.00
10245;DHT22;5167;52.164;10.530;2023-05-07T14:37:43;15.30;13.00
10245;DHT22;5167;52.164;10.530;2023-05-07T14:40:09;15.40;11.20
10245;DHT22;5167;52.164;10.530;2023-05-07T14:42:35;15.40;12.10
10245;DHT22;5167;52.164;10.530;2023-05-07T14:45:01;15.40;11.80
10245;DHT22;5167;52.164;10.530;2023-05-07T14:47:27;15.30;11.90
10245;DHT22;5167;52.164;10.530;2023-05-07T14:49:53;15.30;11.70
10245;DHT22;5167;52.164;10.530;2023-05-07T14:52:19;15.30;10.80
10245;DHT22;5167;52.164;10.530;2023-05-07T14:54:45;15.30;10.70
10245;DHT22;5167;52.164;10.530;2023-05-07T14:57:11;15.20;10.60
10245;DHT22;5167;52.164;10.530;2023-05-07T14:59:41;15.10;10.60
10245;DHT22;5167;52.164;10.530;2023-05-07T15:02:07;15.10;11.30
10245;DHT22;5167;52.164;10.530;2023-05-07T15:04:34;15.00;12.30
10245;DHT22;5167;52.164;10.530;2023-05-07T15:07:00;15.10;11.50
10245;DHT22;5167;52.164;10.530;2023-05-07T15:09:26;15.10;12.30
10245;DHT22;5167;52.164;10.530;2023-05-07T15:11:51;15.20;11.20
10245;DHT22;5167;52.164;10.530;2023-05-07T15:14:17;15.20;11.60
10245;DHT22;5167;52.164;10.530;2023-05-07T15:16:43;15.30;11.80
10245;DHT22;5167;52.164;10.530;2023-05-07T15:19:09;15.30;11.80
10245;DHT22;5167;52.164;10.530;2023-05-07T15:21:34;15.30;12.20
10245;DHT22;5167;52.164;10.530;2023-05-07T15:24:01;15.40;11.10
10245;DHT22;5167;52.164;10.530;2023-05-07T15:26:27;15.40;10.00
10245;DHT22;5167;52.164;10.530;2023-05-07T15:28:52;15.40;10.30
10245;DHT22;5167;52.164;10.530;2023-05-07T15:31:18;15.40;10.10
10245;DHT22;5167;52.164;10.530;2023-05-07T15:33:44;15.40;10.30
10245;DHT22;5167;52.164;10.530;2023-05-07T15:36:10;15.30;9.80
10245;DHT22;5167;52.164;10.530;2023-05-07T15:38:36;15.40;9.30
10245;DHT22;5167;52.164;10.530;2023-05-07T15:41:01;15.50;10.50
10245;DHT22;5167;52.164;10.530;2023-05-07T15:43:27;15.50;10.10
10245;DHT22;5167;52.164;10.530;2023-05-07T15:45:53;15.60;9.50
10245;DHT22;5167;52.164;10.530;2023-05-07T15:48:18;15.60;10.00
10245;DHT22;5167;52.164;10.530;2023-05-07T15:50:44;15.60;10.60